createdAt,value
2022-12-25T00:00:26.883Z,9.53
2022-12-25T00:05:28.748Z,9.17
2022-12-25T00:10:37.480Z,7.50
2022-12-25T00:15:42.928Z,9.30
2022-12-25T00:20:44.819Z,7.07
2022-12-25T00:31:12.225Z,6.03
2022-12-25T00:36:21.186Z,6.47
2022-12-25T00:46:45.938Z,6.53
2022-12-25T00:51:51.997Z,6.63
2022-12-25T00:56:53.617Z,7.47
2022-12-25T01:01:55.315Z,6.87
2022-12-25T01:06:57.034Z,7.37
2022-12-25T01:11:58.662Z,7.77
2022-12-25T01:17:00.514Z,8.57
2022-12-25T01:22:02.267Z,8.23
2022-12-25T01:27:06.092Z,8.47
2022-12-25T01:32:07.896Z,8.90
2022-12-25T01:37:20.577Z,8.80
2022-12-25T01:42:24.590Z,9.73
2022-12-25T01:47:26.340Z,9.20
2022-12-25T01:52:33.240Z,9.33
2022-12-25T01:57:36.421Z,7.43
2022-12-25T02:02:38.962Z,9.03
2022-12-25T02:07:48.594Z,8.87
2022-12-25T02:12:53.664Z,8.33
2022-12-25T02:18:22.896Z,9.53
2022-12-25T02:23:36.378Z,9.27
2022-12-25T02:29:17.356Z,7.67
2022-12-25T02:34:32.283Z,6.80
2022-12-25T02:40:01.248Z,8.30
2022-12-25T02:45:25.771Z,7.50
2022-12-25T02:51:11.061Z,6.60
2022-12-25T02:56:29.697Z,6.33
2022-12-25T03:01:54.722Z,6.23
2022-12-25T03:07:29.032Z,6.23
2022-12-25T03:12:39.637Z,6.80
2022-12-25T03:17:43.901Z,5.97
2022-12-25T03:23:04.510Z,6.43
2022-12-25T03:28:14.872Z,6.87
2022-12-25T03:33:45.316Z,6.93
2022-12-25T03:39:29.855Z,6.33
2022-12-25T03:44:39.685Z,6.37
2022-12-25T03:50:10.261Z,6.83
2022-12-25T03:55:38.400Z,7.80
2022-12-25T04:00:58.724Z,6.67
2022-12-25T04:06:27.989Z,7.73
2022-12-25T04:11:48.299Z,7.33
2022-12-25T04:17:08.601Z,7.37
2022-12-25T04:22:32.974Z,7.73
2022-12-25T04:27:53.120Z,7.53
2022-12-25T04:33:17.507Z,7.93
2022-12-25T04:38:20.974Z,7.10
2022-12-25T04:43:25.112Z,6.37
2022-12-25T04:48:29.763Z,7.83
2022-12-25T04:53:33.802Z,6.67
2022-12-25T04:58:37.390Z,8.40
2022-12-25T05:03:39.683Z,7.97
2022-12-25T05:08:53.070Z,6.80
2022-12-25T05:13:57.920Z,7.77
2022-12-25T05:19:02.162Z,6.93
2022-12-25T05:24:04.099Z,7.00
2022-12-25T05:29:10.123Z,7.23
2022-12-25T05:34:14.644Z,7.13
2022-12-25T05:39:16.373Z,6.57
2022-12-25T05:44:25.632Z,6.60
2022-12-25T05:49:29.934Z,6.47
2022-12-25T05:54:31.665Z,6.47
2022-12-25T05:59:36.255Z,7.07
2022-12-25T06:04:41.275Z,7.57
2022-12-25T06:09:46.192Z,7.03
2022-12-25T06:14:51.639Z,7.97
2022-12-25T06:20:01.536Z,7.53
2022-12-25T06:25:03.400Z,7.13
2022-12-25T06:30:06.007Z,7.43
2022-12-25T06:35:08.272Z,6.67
2022-12-25T06:40:10.352Z,7.60
2022-12-25T06:45:16.645Z,6.60
2022-12-25T06:50:18.545Z,6.23
2022-12-25T06:55:24.485Z,6.67
2022-12-25T07:00:26.293Z,7.73
2022-12-25T07:05:28.063Z,6.10
2022-12-25T07:10:31.575Z,7.23
2022-12-25T07:15:33.295Z,7.50
2022-12-25T07:20:37.624Z,9.60
2022-12-25T07:25:43.676Z,9.80
2022-12-25T07:30:45.631Z,7.70
2022-12-25T07:35:47.377Z,8.37
2022-12-25T07:40:55.251Z,7.43
2022-12-25T07:46:00.797Z,6.70
2022-12-25T07:51:08.256Z,6.87
2022-12-25T07:56:18.393Z,6.73
2022-12-25T08:11:53.510Z,7.13
2022-12-25T09:00:13.611Z,6.17
2022-12-25T10:48:35.335Z,4.80
2022-12-25T10:53:43.167Z,4.97
2022-12-25T10:58:45.142Z,5.57
2022-12-25T11:03:57.021Z,5.57
2022-12-25T11:09:00.283Z,6.30
2022-12-25T11:14:02.600Z,5.67
2022-12-25T11:19:28.324Z,7.47
2022-12-25T11:24:32.211Z,7.67
2022-12-25T11:29:45.408Z,8.17
2022-12-25T11:34:48.602Z,7.53
2022-12-25T11:39:50.296Z,11.47
2022-12-25T11:45:01.915Z,10.47
2022-12-25T11:50:35.217Z,9.00
2022-12-25T11:56:40.014Z,9.23
2022-12-25T12:02:46.044Z,9.37
2022-12-25T12:08:41.523Z,8.97
2022-12-25T12:14:30.158Z,8.63
2022-12-25T12:20:50.653Z,7.60
2022-12-25T12:25:55.141Z,7.67
2022-12-25T12:44:11.268Z,8.37
2022-12-25T12:49:28.157Z,9.20
2022-12-25T12:54:36.211Z,10.87
2022-12-25T12:59:43.521Z,10.57
2022-12-25T13:05:35.885Z,10.47
2022-12-25T13:10:46.571Z,10.40
2022-12-25T13:15:50.792Z,9.40
2022-12-25T13:21:55.372Z,10.17
2022-12-25T13:26:57.575Z,8.53
2022-12-25T13:32:53.977Z,8.73
2022-12-25T13:37:54.703Z,8.87
2022-12-25T13:43:30.147Z,9.33
2022-12-25T13:48:32.391Z,9.07
2022-12-25T13:53:42.464Z,9.83
2022-12-25T13:58:46.625Z,10.67
2022-12-25T14:09:38.714Z,9.17
2022-12-25T14:15:00.773Z,9.00
2022-12-25T14:31:42.110Z,9.57
2022-12-25T14:36:43.866Z,10.57
2022-12-25T14:41:54.244Z,11.03
2022-12-25T14:47:06.483Z,22.27
2022-12-25T14:52:24.908Z,18.90
2022-12-25T14:57:43.755Z,17.37
2022-12-25T15:02:46.531Z,19.23
2022-12-25T15:08:02.274Z,23.13
2022-12-25T15:13:07.957Z,19.17
2022-12-25T15:18:18.198Z,16.57
2022-12-25T15:23:25.400Z,17.17
2022-12-25T15:29:09.793Z,17.07
2022-12-25T15:34:23.644Z,16.07
2022-12-25T15:39:25.494Z,15.47
2022-12-25T15:44:27.641Z,14.97
2022-12-25T15:49:32.104Z,13.23
2022-12-25T15:54:34.229Z,15.07
2022-12-25T15:59:38.686Z,15.73
2022-12-25T16:04:42.385Z,15.80
2022-12-25T16:09:49.612Z,16.53
2022-12-25T16:14:59.636Z,16.93
2022-12-25T16:20:01.890Z,17.30
2022-12-25T16:25:17.342Z,18.27
2022-12-25T16:30:21.087Z,18.40
2022-12-25T16:35:26.371Z,18.53
2022-12-25T16:40:31.743Z,17.43
2022-12-25T16:45:46.550Z,18.60
2022-12-25T16:50:50.336Z,19.33
2022-12-25T16:55:57.637Z,18.93
2022-12-25T17:07:17.088Z,19.27
2022-12-25T17:12:42.488Z,20.73
2022-12-25T17:18:02.033Z,21.87
2022-12-25T17:23:09.399Z,23.67
2022-12-25T17:28:11.260Z,28.90
2022-12-25T17:33:13.108Z,30.37
2022-12-25T17:38:17.761Z,31.60
2022-12-25T17:43:21.158Z,29.93
2022-12-25T17:48:31.930Z,32.20
2022-12-25T17:53:40.488Z,29.33
2022-12-25T17:58:44.917Z,27.27
2022-12-25T18:03:47.221Z,28.37
2022-12-25T18:08:49.750Z,31.17
2022-12-25T18:14:00.232Z,30.40
2022-12-25T18:19:04.709Z,30.57
2022-12-25T18:24:16.654Z,33.80
2022-12-25T18:29:18.638Z,30.47
2022-12-25T18:34:45.607Z,36.23
2022-12-25T18:40:04.069Z,38.67
2022-12-25T18:45:26.039Z,40.33
2022-12-25T18:50:27.952Z,35.70
2022-12-25T18:55:30.059Z,36.17
2022-12-25T19:00:32.241Z,35.27
2022-12-25T19:05:34.077Z,36.33
2022-12-25T19:10:40.578Z,31.70
2022-12-25T19:15:43.458Z,36.93
2022-12-25T19:20:45.279Z,32.80
2022-12-25T19:25:49.998Z,30.37
2022-12-25T19:30:54.202Z,24.57
2022-12-25T19:36:09.817Z,25.10
2022-12-25T19:46:46.428Z,18.43
2022-12-25T19:51:51.138Z,14.70
2022-12-25T19:57:34.593Z,11.10
2022-12-25T20:02:38.991Z,11.77
2022-12-25T20:07:40.928Z,10.53
2022-12-25T20:12:42.953Z,10.60
2022-12-25T20:17:49.074Z,10.70
2022-12-25T20:23:05.046Z,11.30
2022-12-25T20:28:07.180Z,10.77
2022-12-25T20:34:01.561Z,11.23
2022-12-25T20:39:06.401Z,11.63
2022-12-25T20:44:10.609Z,10.73
2022-12-25T20:49:15.270Z,12.03
2022-12-25T20:54:17.101Z,12.97
2022-12-25T20:59:18.841Z,12.80
2022-12-25T21:04:20.854Z,13.10
2022-12-25T21:09:22.612Z,13.60
2022-12-25T21:14:24.591Z,13.03
2022-12-25T21:19:28.788Z,13.83
2022-12-25T21:24:30.846Z,14.03
2022-12-25T21:29:32.592Z,12.53
2022-12-25T21:34:39.262Z,13.57
2022-12-25T21:39:41.326Z,12.80
2022-12-25T21:44:43.029Z,14.47
2022-12-25T21:55:54.628Z,13.90
2022-12-25T22:01:05.542Z,13.57
2022-12-25T22:06:26.130Z,13.93
2022-12-25T22:12:15.702Z,13.60
2022-12-25T22:23:01.446Z,14.70
2022-12-25T22:28:03.524Z,16.40
2022-12-25T22:33:08.135Z,17.97
2022-12-25T22:38:09.963Z,19.00
2022-12-25T22:43:11.634Z,19.67
2022-12-25T22:48:13.508Z,21.47
2022-12-25T22:53:15.308Z,21.77
2022-12-25T22:58:19.175Z,22.37
2022-12-25T23:03:21.462Z,20.63
2022-12-25T23:08:32.627Z,21.77
2022-12-25T23:13:53.269Z,23.30
2022-12-25T23:20:17.406Z,21.07
2022-12-25T23:25:42.015Z,19.73
2022-12-25T23:30:45.823Z,19.37
2022-12-25T23:35:53.056Z,20.80
2022-12-25T23:40:55.963Z,19.93
2022-12-25T23:45:57.712Z,20.83
2022-12-25T23:51:08.451Z,20.13
2022-12-25T23:56:48.055Z,20.70
